Carius, Brazil
Current Conditions -  °F | °C
As of 6:00 PM on Saturday 25 Oct 2014 (Local Time) from SBJU Reporting Station
Scattered Clouds Scattered Clouds  
Wind Chill: 95°   Ceiling: Unl
Heat Index: 95°   Visibility: 6mi
Dew Point: 55°   Wind: 6mph
Humidity: 26%   Direction: 100°E
Pressure: 29.88"   Gusts: NA
Location:  6.54°S, 39.5°W
Report Text: SBJU 252100Z 10005KT 9999 SCT023 35/13 Q1012
Loading
Personal Weather Stations






























Interactive Weather Map
Tropical Storm Tracking
New forecast layout! Learn more

10-Day Weather Forecast

Advertisements
Track Severe Weather on mobile